Time;durP1;ratioP1;P1;durP2;ratioP2;P2;SDS_P1;SDS_P2;PMS_P1;PMS_P2;Temp;Humidity;BMP_temperature;BMP_pressure;BME280_temperature;BME280_humidity;BME280_pressure;Samples;Min_cycle;Max_cycle;Signal;HPM_P1;HPM_P2
2022/01/30 02:02:36;;;;;;;;;;;;;;;1.79;76.23;100063.88;5254411;22;19931;-77
2022/01/30 02:05:03;;;;;;;;;;;;;;;1.78;75.01;100037.69;5023270;28;20004;-77
2022/01/30 02:10:37;;;;;;;;;;;;;;;1.88;74.00;100041.69;4961804;28;19917;-77
2022/01/30 02:13:39;;;;;;;;;;;;;;;1.83;74.41;100034.59;5003458;28;19917;-77
2022/01/30 02:24:20;;;;;;;;;;;;;;;1.85;72.64;100039.72;5023472;28;19961;-81
2022/01/30 02:26:47;;;;;;;;;;;;;;;1.85;72.44;100045.19;5016634;28;20282;-80
2022/01/30 02:29:13;;;;;;;;;;;;;;;1.83;72.12;100037.34;4994835;28;20032;-80
2022/01/30 02:31:40;;;;;;;;;;;;;;;1.86;73.06;100038.56;5026775;28;20429;-81
2022/01/30 02:34:07;;;;;;;;;;;;;;;1.90;72.13;100049.53;5007391;28;19921;-80
2022/01/30 02:36:44;;;;;;;;;;;;;;;1.86;72.21;100044.78;5016857;28;19917;-81
2022/01/30 02:39:10;;;;;;;;;;;;;;;1.82;72.98;100030.28;5006782;28;20275;-77
2022/01/30 02:41:38;;;;;;;;;;;;;;;1.81;73.52;100001.41;5008880;28;19940;-80
2022/01/30 02:44:27;;;;;;;;;;;;;;;1.77;73.05;100030.66;5014824;28;19966;-81
2022/01/30 02:46:55;;;;;;;;;;;;;;;1.72;73.75;100022.78;5011159;28;20310;-81
2022/01/30 02:52:07;;;;;;;;;;;;;;;1.64;74.10;100010.22;5017479;28;20437;-80
2022/01/30 02:54:35;;;;;;;;;;;;;;;1.67;73.51;99990.31;4993601;28;19957;-81
2022/01/30 02:57:00;;;;;;;;;;;;;;;1.65;73.39;99987.19;5000629;28;19925;-80
2022/01/30 02:59:27;;;;;;;;;;;;;;;1.72;73.00;100003.66;4997584;28;19917;-81
2022/01/30 03:01:53;;;;;;;;;;;;;;;1.72;72.92;99994.66;5011959;28;20289;-80
2022/01/30 03:04:18;;;;;;;;;;;;;;;1.66;72.79;99977.81;5029789;28;19920;-80
2022/01/30 03:06:45;;;;;;;;;;;;;;;1.64;73.33;99993.03;5015794;28;19917;-80
2022/01/30 03:09:26;;;;;;;;;;;;;;;1.65;72.64;99995.41;5039250;28;19921;-81
2022/01/30 03:11:51;;;;;;;;;;;;;;;1.60;72.52;99993.00;5005689;28;19928;-81
2022/01/30 03:14:17;;;;;;;;;;;;;;;1.58;73.07;99978.91;5016416;28;20362;-80
2022/01/30 03:16:42;;;;;;;;;;;;;;;1.55;73.36;99976.94;5033090;28;19917;-80
2022/01/30 03:19:07;;;;;;;;;;;;;;;1.51;73.42;99973.41;5033721;28;19917;-81
2022/01/30 03:21:33;;;;;;;;;;;;;;;1.54;73.48;99961.69;5035077;28;20592;-81
2022/01/30 03:23:58;;;;;;;;;;;;;;;1.55;73.63;99979.69;5012371;28;20661;-81
2022/01/30 03:26:24;;;;;;;;;;;;;;;1.51;73.20;99973.41;5031618;28;19921;-81
2022/01/30 03:29:18;;;;;;;;;;;;;;;1.51;73.53;99959.72;4997017;28;19932;-81
2022/01/30 03:31:45;;;;;;;;;;;;;;;1.52;73.80;99942.16;5032034;28;19967;-81
2022/01/30 03:34:12;;;;;;;;;;;;;;;1.55;73.89;99949.59;5020621;28;19976;-81
2022/01/30 03:36:48;;;;;;;;;;;;;;;1.56;73.50;99955.88;5015586;28;19921;-81
2022/01/30 03:39:14;;;;;;;;;;;;;;;1.56;73.79;99929.31;5015678;28;19917;-81
2022/01/30 03:41:40;;;;;;;;;;;;;;;1.57;73.69;99916.44;4995669;28;20000;-81
2022/01/30 03:44:09;;;;;;;;;;;;;;;1.58;73.50;99912.53;5012641;28;20386;-81
2022/01/30 03:46:34;;;;;;;;;;;;;;;1.67;72.26;99902.84;5014705;28;19963;-81
2022/01/30 03:49:00;;;;;;;;;;;;;;;1.66;71.70;99887.59;5032252;28;19930;-81
2022/01/30 03:51:36;;;;;;;;;;;;;;;1.64;72.91;99873.53;5015577;28;20357;-80
2022/01/30 03:54:16;;;;;;;;;;;;;;;1.60;72.98;99848.09;5014595;28;19917;-81
2022/01/30 03:56:41;;;;;;;;;;;;;;;1.52;72.68;99838.28;5006591;28;20381;-80
2022/01/30 03:59:07;;;;;;;;;;;;;;;1.49;73.71;99835.53;5014269;28;19917;-81
2022/01/30 04:01:33;;;;;;;;;;;;;;;1.43;75.85;99846.03;4999305;28;19913;-81
2022/01/30 04:03:59;;;;;;;;;;;;;;;1.40;77.33;99847.59;5011979;28;19917;-80
2022/01/30 04:06:24;;;;;;;;;;;;;;;1.35;79.12;99852.63;5031811;28;19970;-81
2022/01/30 04:08:50;;;;;;;;;;;;;;;1.27;79.46;99881.84;5014919;28;20329;-80
2022/01/30 04:11:32;;;;;;;;;;;;;;;1.16;79.52;99853.66;5014924;28;20046;-81
2022/01/30 04:14:21;;;;;;;;;;;;;;;1.07;80.21;99866.06;5022077;28;20386;-81
2022/01/30 04:17:06;;;;;;;;;;;;;;;1.04;80.37;99853.16;5014663;28;19935;-77
2022/01/30 04:19:50;;;;;;;;;;;;;;;1.01;80.95;99859.38;5017083;28;19917;-77
2022/01/30 04:22:28;;;;;;;;;;;;;;;0.99;80.35;99858.97;5030050;28;19917;-77
2022/01/30 04:25:19;;;;;;;;;;;;;;;0.99;80.26;99858.97;5011659;28;20012;-77
2022/01/30 04:28:06;;;;;;;;;;;;;;;0.94;80.94;99863.59;5011561;28;19917;-77
2022/01/30 04:30:57;;;;;;;;;;;;;;;0.92;81.04;99860.47;5030411;28;20031;-80
2022/01/30 04:33:35;;;;;;;;;;;;;;;0.91;81.11;99864.38;5014856;28;19917;-81
2022/01/30 04:36:02;;;;;;;;;;;;;;;0.87;81.69;99865.50;5012391;28;19940;-81
2022/01/30 04:39:05;;;;;;;;;;;;;;;0.85;81.12;99860.38;5013821;28;19924;-81
2022/01/30 04:55:12;;;;;;;;;;;;;;;0.77;81.63;99853.28;5029109;28;19971;-80
2022/01/30 04:57:44;;;;;;;;;;;;;;;0.77;82.22;99844.34;5013419;28;20012;-80
2022/01/30 05:06:33;;;;;;;;;;;;;;;0.59;82.97;99846.09;5002379;28;20379;-80
2022/01/30 05:09:14;;;;;;;;;;;;;;;0.54;82.71;99835.50;5012910;28;19913;-80
2022/01/30 05:11:57;;;;;;;;;;;;;;;0.46;82.63;99829.19;5013406;28;20282;-77
2022/01/30 05:14:39;;;;;;;;;;;;;;;0.42;83.15;99820.19;5013303;28;19921;-77
2022/01/30 05:17:37;;;;;;;;;;;;;;;0.36;83.33;99832.63;5025336;28;19921;-79
2022/01/30 05:20:17;;;;;;;;;;;;;;;0.32;84.08;99832.59;5010399;28;19922;-77
2022/01/30 05:23:09;;;;;;;;;;;;;;;0.21;84.56;99825.41;5022382;28;19921;-77
2022/01/30 05:25:37;;;;;;;;;;;;;;;0.11;84.93;99826.09;5032029;28;20275;-77
2022/01/30 05:28:12;;;;;;;;;;;;;;;0.10;84.88;99832.69;5013047;28;20019;-77
2022/01/30 05:30:37;;;;;;;;;;;;;;;0.08;85.29;99818.66;5030993;28;20044;-79
2022/01/30 05:33:22;;;;;;;;;;;;;;;0.04;85.51;99815.09;5022942;28;20402;-80
2022/01/30 05:35:51;;;;;;;;;;;;;;;-0.01;85.97;99825.19;5030778;28;19924;-81
2022/01/30 05:38:35;;;;;;;;;;;;;;;-0.02;85.64;99820.09;5031207;28;19967;-81
2022/01/30 05:41:32;;;;;;;;;;;;;;;-0.04;85.94;99831.34;5004475;28;20024;-82
2022/01/30 05:44:20;;;;;;;;;;;;;;;-0.05;86.30;99827.06;5024046;28;19924;-82
2022/01/30 05:47:09;;;;;;;;;;;;;;;-0.01;85.80;99830.63;4989963;28;19917;-81
2022/01/30 05:49:50;;;;;;;;;;;;;;;0.02;85.69;99822.84;5000464;28;19924;-81
2022/01/30 05:52:34;;;;;;;;;;;;;;;0.02;85.23;99826.38;5026871;28;19970;-80
2022/01/30 05:55:11;;;;;;;;;;;;;;;0.00;85.13;99831.44;5024836;28;19917;-80
2022/01/30 05:57:36;;;;;;;;;;;;;;;-0.01;84.50;99847.00;4997077;28;20290;-80
2022/01/30 06:00:03;;;;;;;;;;;;;;;-0.04;84.88;99858.63;5012143;28;20386;-80
2022/01/30 06:02:47;;;;;;;;;;;;;;;-0.02;85.51;99850.88;5027749;28;19970;-81
2022/01/30 06:05:15;;;;;;;;;;;;;;;-0.12;85.71;99846.06;5020985;28;19917;-80
2022/01/30 06:07:49;;;;;;;;;;;;;;;-0.14;86.06;99853.81;5024750;28;20342;-79
2022/01/30 06:10:15;;;;;;;;;;;;;;;-0.23;86.42;99856.03;5009804;28;19920;-81
2022/01/30 06:12:40;;;;;;;;;;;;;;;-0.32;87.02;99854.75;5007048;28;19921;-80
2022/01/30 06:15:06;;;;;;;;;;;;;;;-0.35;86.70;99863.66;5025974;28;20031;-81
2022/01/30 06:17:31;;;;;;;;;;;;;;;-0.45;88.58;99865.09;5016109;28;19924;-80
2022/01/30 06:19:57;;;;;;;;;;;;;;;-0.56;89.70;99862.19;5031153;28;19913;-80
2022/01/30 06:22:54;;;;;;;;;;;;;;;-0.57;88.89;99876.97;5002347;28;19921;-80
2022/01/30 06:25:38;;;;;;;;;;;;;;;-0.59;89.06;99887.44;5024309;28;19971;-82
2022/01/30 06:28:16;;;;;;;;;;;;;;;-0.50;90.09;99884.47;5025443;28;20011;-83
2022/01/30 06:31:07;;;;;;;;;;;;;;;-0.50;89.73;99885.25;5027212;28;20373;-79
2022/01/30 06:33:42;;;;;;;;;;;;;;;-0.51;89.68;99861.88;5026753;28;19917;-77
2022/01/30 06:36:10;;;;;;;;;;;;;;;-0.51;90.55;99867.31;5014421;28;19918;-79
2022/01/30 06:38:41;;;;;;;;;;;;;;;-0.49;90.49;99862.31;5013972;28;20008;-79
2022/01/30 06:41:13;;;;;;;;;;;;;;;-0.50;90.65;99868.13;5023968;28;19917;-79
2022/01/30 06:43:57;;;;;;;;;;;;;;;-0.56;91.30;99861.38;5027063;28;19975;-79
2022/01/30 06:46:41;;;;;;;;;;;;;;;-0.54;90.72;99884.41;5031304;28;19935;-81
2022/01/30 06:49:25;;;;;;;;;;;;;;;-0.54;91.05;99889.06;5020789;28;19923;-81
2022/01/30 06:52:11;;;;;;;;;;;;;;;-0.42;91.26;99896.25;5024153;28;19929;-82
2022/01/30 06:54:55;;;;;;;;;;;;;;;-0.30;91.60;99899.56;5029009;28;19924;-80
2022/01/30 06:57:44;;;;;;;;;;;;;;;-0.17;90.31;99898.19;5029676;28;19924;-80
2022/01/30 07:00:47;;;;;;;;;;;;;;;-0.03;89.21;99887.47;4970070;28;19918;-83
2022/01/30 07:03:31;;;;;;;;;;;;;;;0.10;88.52;99893.47;4970481;28;19937;-79
2022/01/30 07:06:20;;;;;;;;;;;;;;;0.19;88.01;99890.47;5008312;28;19948;-79
2022/01/30 07:08:46;;;;;;;;;;;;;;;0.22;87.94;99892.44;5026089;28;19975;-80
2022/01/30 07:11:11;;;;;;;;;;;;;;;0.21;87.49;99885.41;5012482;28;20028;-79
2022/01/30 07:13:37;;;;;;;;;;;;;;;0.23;87.17;99897.56;5026632;28;19922;-79
2022/01/30 07:16:03;;;;;;;;;;;;;;;0.23;87.02;99894.03;5028884;28;20366;-79
2022/01/30 07:18:28;;;;;;;;;;;;;;;0.24;87.00;99901.06;5025051;28;19916;-79
2022/01/30 07:20:54;;;;;;;;;;;;;;;0.34;87.10;99916.78;5008727;28;19923;-79
2022/01/30 07:23:20;;;;;;;;;;;;;;;0.36;87.35;99904.34;5027049;28;19916;-80
2022/01/30 07:25:45;;;;;;;;;;;;;;;0.52;87.11;99917.00;5035576;28;19917;-79
2022/01/30 07:28:10;;;;;;;;;;;;;;;0.61;86.80;99903.84;5035138;28;19924;-79
2022/01/30 07:30:36;;;;;;;;;;;;;;;0.75;86.43;99904.78;5039769;28;19917;-79
2022/01/30 07:33:02;;;;;;;;;;;;;;;0.88;85.98;99930.66;5033540;28;19921;-79
2022/01/30 07:35:27;;;;;;;;;;;;;;;1.03;85.66;99908.94;5037854;28;20384;-79
2022/01/30 07:37:53;;;;;;;;;;;;;;;1.15;84.26;99944.19;5050425;28;20388;-79
2022/01/30 07:40:19;;;;;;;;;;;;;;;1.23;84.06;99956.75;5032778;28;20366;-79
2022/01/30 07:42:44;;;;;;;;;;;;;;;1.16;83.25;99943.03;4999063;28;19955;-83
2022/01/30 07:45:14;;;;;;;;;;;;;;;1.20;83.41;99930.97;5021301;28;20329;-83
2022/01/30 07:47:39;;;;;;;;;;;;;;;1.36;82.34;99934.22;5039421;28;19917;-80
2022/01/30 07:50:05;;;;;;;;;;;;;;;1.46;81.21;99938.19;5039550;28;20293;-83
2022/01/30 07:52:30;;;;;;;;;;;;;;;1.63;80.58;99953.19;5031577;28;19913;-82
2022/01/30 07:54:56;;;;;;;;;;;;;;;1.82;78.99;99945.50;5031384;28;19916;-83
2022/01/30 07:57:22;;;;;;;;;;;;;;;2.00;77.71;99937.44;5007181;28;20298;-83
2022/01/30 07:59:47;;;;;;;;;;;;;;;2.24;77.76;99934.03;5025230;28;19972;-84
2022/01/30 08:02:13;;;;;;;;;;;;;;;2.23;76.90;99929.72;4994642;28;19952;-81
2022/01/30 08:04:38;;;;;;;;;;;;;;;2.30;76.30;99923.53;5026988;28;19916;-80
2022/01/30 08:07:04;;;;;;;;;;;;;;;2.51;75.65;99929.06;5026486;28;20098;-80
2022/01/30 08:09:29;;;;;;;;;;;;;;;2.72;73.83;99923.69;4994850;28;19970;-81
2022/01/30 08:11:55;;;;;;;;;;;;;;;2.83;72.44;99916.25;5026812;28;19928;-81
2022/01/30 08:14:20;;;;;;;;;;;;;;;2.94;71.28;99926.47;5011500;28;19928;-81
2022/01/30 08:16:46;;;;;;;;;;;;;;;2.97;70.59;99934.69;5027505;28;19924;-81
2022/01/30 08:19:11;;;;;;;;;;;;;;;3.00;69.49;99936.66;5029530;28;20064;-81
2022/01/30 08:21:37;;;;;;;;;;;;;;;3.04;69.36;99936.66;5027003;28;20417;-81
2022/01/30 08:24:02;;;;;;;;;;;;;;;3.15;68.52;99937.50;5024830;28;19953;-80
2022/01/30 08:26:27;;;;;;;;;;;;;;;3.31;69.13;99935.16;5028697;28;20004;-80
2022/01/30 08:28:53;;;;;;;;;;;;;;;3.61;67.95;99935.53;5007208;28;20298;-80
2022/01/30 08:31:18;;;;;;;;;;;;;;;3.92;66.35;99922.19;5012238;28;19925;-79
2022/01/30 08:33:44;;;;;;;;;;;;;;;4.33;63.37;99922.50;5027768;28;20404;-82
2022/01/30 08:36:09;;;;;;;;;;;;;;;4.61;61.74;99923.13;5028856;28;19943;-80
2022/01/30 08:38:34;;;;;;;;;;;;;;;4.79;60.67;99927.78;5028060;28;19917;-80
2022/01/30 08:41:00;;;;;;;;;;;;;;;5.00;60.57;99931.19;5028781;28;20390;-81
2022/01/30 08:43:25;;;;;;;;;;;;;;;5.11;59.68;99928.38;5011872;28;19925;-80
2022/01/30 08:45:51;;;;;;;;;;;;;;;5.31;59.25;99921.16;5026604;28;19917;-80
2022/01/30 08:48:16;;;;;;;;;;;;;;;5.59;58.40;99925.66;5028880;28;20087;-80
2022/01/30 08:50:42;;;;;;;;;;;;;;;5.69;57.27;99929.50;5011124;28;19963;-80
2022/01/30 08:53:07;;;;;;;;;;;;;;;5.54;56.53;99923.34;5014659;28;19974;-80
2022/01/30 08:55:33;;;;;;;;;;;;;;;5.49;56.73;99921.81;5029647;28;19917;-80
2022/01/30 08:57:59;;;;;;;;;;;;;;;5.61;57.67;99940.59;5011686;28;19917;-80
2022/01/30 09:00:24;;;;;;;;;;;;;;;5.68;56.97;99925.97;5012521;28;19921;-80
2022/01/30 09:02:50;;;;;;;;;;;;;;;5.89;56.85;99933.28;5008808;28;20302;-80
2022/01/30 09:05:15;;;;;;;;;;;;;;;6.16;56.87;99928.69;5028266;28;19917;-76
2022/01/30 09:07:41;;;;;;;;;;;;;;;6.26;55.98;99944.31;5028709;28;19987;-80
2022/01/30 09:10:07;;;;;;;;;;;;;;;6.53;56.20;99936.13;5028926;28;20351;-80
2022/01/30 09:12:34;;;;;;;;;;;;;;;6.74;55.35;99937.84;5021837;28;20008;-80
2022/01/30 09:15:00;;;;;;;;;;;;;;;6.71;55.48;99941.44;5026242;28;19924;-81
2022/01/30 09:17:27;;;;;;;;;;;;;;;6.70;56.16;99931.59;5030849;28;20332;-81
2022/01/30 09:19:53;;;;;;;;;;;;;;;6.81;57.04;99910.19;5013261;28;19967;-81
2022/01/30 09:22:19;;;;;;;;;;;;;;;6.81;57.07;99932.25;5031314;28;19960;-81
2022/01/30 09:24:44;;;;;;;;;;;;;;;6.96;57.40;99917.84;5025977;28;20373;-82
2022/01/30 09:27:10;;;;;;;;;;;;;;;7.00;57.69;99913.06;5029872;28;19916;-82
2022/01/30 09:29:36;;;;;;;;;;;;;;;7.15;57.61;99902.63;5025968;28;19940;-82
2022/01/30 09:32:02;;;;;;;;;;;;;;;7.27;57.65;99899.28;5012942;28;20365;-81
2022/01/30 09:34:27;;;;;;;;;;;;;;;7.59;57.97;99895.22;5011995;28;20000;-82
2022/01/30 09:36:53;;;;;;;;;;;;;;;7.99;58.04;99899.63;5030671;28;20047;-82
2022/01/30 09:39:18;;;;;;;;;;;;;;;8.30;57.51;99889.19;5030098;28;19917;-81
2022/01/30 09:41:44;;;;;;;;;;;;;;;8.62;56.14;99902.34;5026995;28;19961;-81
2022/01/30 09:44:10;;;;;;;;;;;;;;;8.68;55.20;99898.69;5025710;28;20019;-82
2022/01/30 09:46:37;;;;;;;;;;;;;;;8.82;55.20;99906.66;5030620;28;20370;-82
2022/01/30 09:49:02;;;;;;;;;;;;;;;8.91;54.87;99908.84;5030156;28;20305;-81
2022/01/30 09:51:27;;;;;;;;;;;;;;;9.06;54.21;99901.78;5030345;28;19925;-82
2022/01/30 09:53:53;;;;;;;;;;;;;;;9.25;53.70;99905.72;5027966;28;19928;-82
2022/01/30 09:56:19;;;;;;;;;;;;;;;9.29;54.00;99907.19;5028059;28;19921;-79
2022/01/30 09:58:45;;;;;;;;;;;;;;;9.49;54.00;99911.88;5029633;28;19917;-79
2022/01/30 10:01:11;;;;;;;;;;;;;;;9.73;52.99;99902.94;5027480;28;19971;-80
2022/01/30 10:03:36;;;;;;;;;;;;;;;9.96;52.99;99887.31;5014168;28;19925;-79
2022/01/30 10:06:04;;;;;;;;;;;;;;;10.16;52.06;99896.28;5011759;28;19969;-79
2022/01/30 10:08:30;;;;;;;;;;;;;;;10.34;52.33;99891.06;5014991;28;19921;-79
2022/01/30 10:11:05;;;;;;;;;;;;;;;10.48;52.30;99879.53;5000817;28;20318;-79
2022/01/30 10:13:31;;;;;;;;;;;;;;;10.58;50.50;99872.16;5017157;28;19983;-79
2022/01/30 10:15:57;;;;;;;;;;;;;;;10.58;51.23;99884.03;5020827;28;19917;-80
2022/01/30 10:18:23;;;;;;;;;;;;;;;10.73;50.63;99879.59;5019406;28;20305;-82
2022/01/30 10:20:49;;;;;;;;;;;;;;;10.81;50.67;99880.16;4999809;28;19918;-82
2022/01/30 10:23:15;;;;;;;;;;;;;;;10.97;50.00;99865.41;5015081;28;19973;-82
2022/01/30 10:26:01;;;;;;;;;;;;;;;11.05;50.25;99856.41;4990480;28;20283;-81
2022/01/30 10:28:28;;;;;;;;;;;;;;;11.15;49.71;99860.88;4992994;28;20019;-82
2022/01/30 10:31:23;;;;;;;;;;;;;;;11.17;47.58;99858.41;5020174;28;19939;-81
2022/01/30 10:33:51;;;;;;;;;;;;;;;11.08;47.68;99855.53;4995598;28;20425;-82
2022/01/30 10:36:21;;;;;;;;;;;;;;;10.98;48.25;99856.66;4983867;28;19924;-82
2022/01/30 10:38:51;;;;;;;;;;;;;;;11.05;48.92;99869.50;5016299;28;19917;-79
2022/01/30 10:41:19;;;;;;;;;;;;;;;11.21;47.83;99856.28;5014814;28;19917;-79
2022/01/30 10:43:52;;;;;;;;;;;;;;;11.27;47.44;99858.53;5015668;28;19921;-79
2022/01/30 10:46:22;;;;;;;;;;;;;;;11.36;46.76;99855.84;5013281;28;19925;-79
2022/01/30 10:48:54;;;;;;;;;;;;;;;11.38;46.79;99867.28;5012669;28;19925;-80
2022/01/30 10:51:19;;;;;;;;;;;;;;;11.34;47.01;99878.50;5016424;28;19917;-79
2022/01/30 10:53:46;;;;;;;;;;;;;;;11.35;46.32;99868.97;5017159;28;19928;-80
2022/01/30 10:56:24;;;;;;;;;;;;;;;11.34;46.99;99853.50;5002240;28;19917;-82
2022/01/30 10:59:10;;;;;;;;;;;;;;;11.55;46.37;99872.25;4995562;28;19921;-83
2022/01/30 11:01:45;;;;;;;;;;;;;;;11.81;45.85;99867.41;5012375;28;19914;-82
2022/01/30 11:04:20;;;;;;;;;;;;;;;11.84;44.38;99858.22;5032790;28;19917;-82
2022/01/30 11:06:46;;;;;;;;;;;;;;;11.86;44.62;99855.75;5032957;28;19917;-82
2022/01/30 11:09:12;;;;;;;;;;;;;;;11.83;44.65;99858.66;5030519;28;19917;-82
2022/01/30 11:11:43;;;;;;;;;;;;;;;11.80;44.19;99857.56;5032092;28;20284;-82
2022/01/30 11:19:19;;;;;;;;;;;;;;;11.86;43.12;99841.84;5030964;28;19956;-81
2022/01/30 11:21:47;;;;;;;;;;;;;;;11.84;42.47;99849.09;5031770;28;19995;-82
2022/01/30 11:24:13;;;;;;;;;;;;;;;11.93;43.21;99851.97;5031731;28;19917;-81
2022/01/30 11:26:39;;;;;;;;;;;;;;;12.14;43.21;99835.28;5030026;28;19929;-81
2022/01/30 11:29:11;;;;;;;;;;;;;;;12.30;40.36;99864.13;5031326;28;19917;-82
2022/01/30 11:31:36;;;;;;;;;;;;;;;12.18;40.16;99853.81;5031969;28;19917;-79
2022/01/30 11:34:02;;;;;;;;;;;;;;;12.11;40.25;99852.09;5036234;28;19980;-79
2022/01/30 11:36:27;;;;;;;;;;;;;;;12.09;40.23;99854.56;5033818;28;19987;-79
2022/01/30 11:38:52;;;;;;;;;;;;;;;12.06;40.21;99842.31;5013160;28;19925;-79
2022/01/30 11:41:19;;;;;;;;;;;;;;;11.89;40.84;99854.84;5031222;28;20336;-79
2022/01/30 11:44:03;;;;;;;;;;;;;;;11.89;41.21;99860.41;5017411;28;20025;-79
2022/01/30 11:46:28;;;;;;;;;;;;;;;11.91;41.54;99832.16;5031641;28;20529;-79
2022/01/30 11:49:13;;;;;;;;;;;;;;;12.04;41.96;99841.22;5028780;28;20008;-79
2022/01/30 11:51:47;;;;;;;;;;;;;;;12.13;41.62;99839.28;5029173;28;20487;-79
2022/01/30 11:54:31;;;;;;;;;;;;;;;12.30;41.31;99830.75;5035763;28;19995;-81
2022/01/30 11:56:56;;;;;;;;;;;;;;;12.17;40.46;99828.06;5026374;28;20218;-81
2022/01/30 11:59:38;;;;;;;;;;;;;;;12.11;40.12;99822.28;5028653;28;20340;-81
2022/01/30 12:02:23;;;;;;;;;;;;;;;11.93;40.38;99830.47;5028773;28;20385;-81
2022/01/30 12:04:55;;;;;;;;;;;;;;;12.06;40.67;99825.63;5031071;28;19917;-81
2022/01/30 12:07:34;;;;;;;;;;;;;;;12.05;40.00;99809.44;5027542;28;20329;-80
2022/01/30 12:10:18;;;;;;;;;;;;;;;11.96;39.25;99818.47;4982011;28;19921;-84
2022/01/30 12:12:54;;;;;;;;;;;;;;;11.91;39.66;99821.81;5023782;28;20556;-81
2022/01/30 12:15:49;;;;;;;;;;;;;;;12.00;39.52;99805.22;5031865;28;20397;-81
2022/01/30 12:18:15;;;;;;;;;;;;;;;12.07;36.96;99810.50;5025110;28;19917;-81
2022/01/30 12:20:59;;;;;;;;;;;;;;;12.13;35.44;99821.84;5029607;28;20282;-81
2022/01/30 12:23:31;;;;;;;;;;;;;;;11.95;34.08;99808.56;5032265;28;19924;-81
2022/01/30 12:26:04;;;;;;;;;;;;;;;11.99;34.91;99803.66;5031456;28;19951;-81
2022/01/30 12:28:48;;;;;;;;;;;;;;;12.14;34.72;99804.69;5032025;28;19921;-85
2022/01/30 12:31:32;;;;;;;;;;;;;;;12.21;34.86;99803.66;5032381;28;19917;-81
2022/01/30 12:34:04;;;;;;;;;;;;;;;12.12;35.39;99815.50;5031661;28;19917;-81
2022/01/30 12:36:30;;;;;;;;;;;;;;;12.33;36.19;99813.16;5032390;28;19921;-81
2022/01/30 12:39:06;;;;;;;;;;;;;;;12.27;35.63;99820.53;5031663;28;19917;-81
2022/01/30 12:41:32;;;;;;;;;;;;;;;12.28;35.45;99822.88;5032333;28;19917;-81
2022/01/30 12:43:59;;;;;;;;;;;;;;;12.20;34.50;99838.25;5031915;28;19917;-81
2022/01/30 12:46:25;;;;;;;;;;;;;;;12.22;34.21;99841.34;5032426;28;20544;-81
2022/01/30 12:49:08;;;;;;;;;;;;;;;12.00;32.38;99835.03;5031550;28;19940;-81
2022/01/30 12:51:34;;;;;;;;;;;;;;;11.79;32.51;99830.97;5031999;28;19920;-81
2022/01/30 12:53:59;;;;;;;;;;;;;;;11.86;32.81;99830.72;5031673;28;19921;-81
2022/01/30 12:56:25;;;;;;;;;;;;;;;12.03;32.77;99842.44;5014130;28;19924;-81
2022/01/30 12:58:52;;;;;;;;;;;;;;;11.88;31.45;99836.63;5031848;28;19917;-81
2022/01/30 13:01:18;;;;;;;;;;;;;;;11.90;31.75;99848.06;5013774;28;19921;-81
2022/01/30 13:03:43;;;;;;;;;;;;;;;11.94;30.78;99832.03;5010822;28;20366;-82
2022/01/30 13:06:08;;;;;;;;;;;;;;;11.96;31.35;99853.81;5029427;28;19917;-81
2022/01/30 13:08:43;;;;;;;;;;;;;;;11.99;30.11;99864.81;5031521;28;19917;-81
2022/01/30 13:11:16;;;;;;;;;;;;;;;11.88;30.17;99866.41;5031228;28;19917;-81
2022/01/30 13:13:59;;;;;;;;;;;;;;;11.94;30.71;99843.16;5031724;28;20359;-81
2022/01/30 13:16:29;;;;;;;;;;;;;;;11.91;29.99;99865.50;5031516;28;19916;-81
2022/01/30 13:18:55;;;;;;;;;;;;;;;11.94;30.07;99872.94;5030701;28;19917;-81
2022/01/30 13:21:24;;;;;;;;;;;;;;;11.80;30.39;99877.00;5029209;28;20378;-81
2022/01/30 13:23:50;;;;;;;;;;;;;;;11.80;30.82;99871.44;5031721;28;19995;-81
2022/01/30 13:26:33;;;;;;;;;;;;;;;11.85;30.93;99872.88;5031442;28;20063;-84
2022/01/30 13:28:59;;;;;;;;;;;;;;;11.90;31.41;99878.63;5031943;28;20463;-81
2022/01/30 13:31:25;;;;;;;;;;;;;;;11.93;30.83;99876.97;5031773;28;19924;-81
2022/01/30 13:34:26;;;;;;;;;;;;;;;11.97;30.71;99883.94;5031366;28;19917;-81
2022/01/30 13:36:59;;;;;;;;;;;;;;;12.11;30.72;99891.78;5009475;28;20318;-81
2022/01/30 13:39:29;;;;;;;;;;;;;;;12.20;31.10;99887.53;4993815;28;19917;-81
2022/01/30 13:42:16;;;;;;;;;;;;;;;12.09;31.13;99893.47;5031625;28;20011;-81
2022/01/30 13:44:51;;;;;;;;;;;;;;;12.12;31.47;99892.56;5029550;28;19920;-81
2022/01/30 13:47:17;;;;;;;;;;;;;;;12.23;31.44;99908.88;5013425;28;19956;-80
2022/01/30 13:49:43;;;;;;;;;;;;;;;12.19;31.26;99902.66;5031270;28;20362;-84
2022/01/30 13:52:10;;;;;;;;;;;;;;;12.05;30.93;99909.50;5030635;28;20011;-84
2022/01/30 13:54:37;;;;;;;;;;;;;;;11.80;31.65;99924.25;5031332;28;20020;-84
2022/01/30 13:57:08;;;;;;;;;;;;;;;11.66;32.31;99908.00;5030768;28;19917;-84
2022/01/30 13:59:34;;;;;;;;;;;;;;;11.61;32.48;99914.13;5025160;28;19917;-84
2022/01/30 14:02:03;;;;;;;;;;;;;;;11.58;32.46;99915.03;5023772;28;19929;-84
2022/01/30 14:04:31;;;;;;;;;;;;;;;11.66;32.77;99921.91;5013836;28;19956;-84
2022/01/30 14:07:00;;;;;;;;;;;;;;;11.71;33.04;99929.69;5017869;28;20362;-83
2022/01/30 14:09:35;;;;;;;;;;;;;;;11.82;32.91;99929.34;5001775;28;20047;-83
2022/01/30 14:12:07;;;;;;;;;;;;;;;11.72;32.79;99936.81;5010346;28;19921;-84
2022/01/30 14:14:38;;;;;;;;;;;;;;;11.44;32.78;99951.59;5017291;28;19961;-84
2022/01/30 14:17:04;;;;;;;;;;;;;;;11.22;32.67;99943.94;5028057;28;20014;-84
2022/01/30 14:19:34;;;;;;;;;;;;;;;10.92;32.31;99983.28;5012927;28;19921;-84
2022/01/30 14:22:32;;;;;;;;;;;;;;;10.64;30.66;99959.91;5030518;28;20436;-83
2022/01/30 14:25:00;;;;;;;;;;;;;;;10.40;31.35;99971.69;5005869;28;20016;-84
2022/01/30 14:27:26;;;;;;;;;;;;;;;10.28;32.11;99960.09;5030854;28;20334;-84
2022/01/30 14:29:52;;;;;;;;;;;;;;;10.13;31.48;99977.53;5030345;28;19962;-83
2022/01/30 14:32:21;;;;;;;;;;;;;;;10.02;32.30;99971.47;5034300;28;20341;-84
2022/01/30 14:34:50;;;;;;;;;;;;;;;9.93;32.99;99966.56;5034323;28;20011;-83
2022/01/30 14:37:17;;;;;;;;;;;;;;;9.84;33.05;99981.00;5034274;28;19917;-83
2022/01/30 14:39:42;;;;;;;;;;;;;;;9.78;33.77;99981.97;5034486;28;19917;-83
2022/01/30 14:42:10;;;;;;;;;;;;;;;9.70;33.68;99989.69;5016461;28;19924;-81
2022/01/30 14:44:36;;;;;;;;;;;;;;;9.66;33.42;99996.50;5025823;28;19956;-80
2022/01/30 14:47:02;;;;;;;;;;;;;;;9.61;33.35;99989.50;5033668;28;19924;-79
2022/01/30 14:49:27;;;;;;;;;;;;;;;9.55;33.65;99996.75;5033406;28;19917;-79
2022/01/30 14:51:53;;;;;;;;;;;;;;;9.48;34.16;99993.34;5029993;28;19956;-79
2022/01/30 14:54:18;;;;;;;;;;;;;;;9.41;34.45;99999.84;5045025;28;20007;-79
2022/01/30 14:56:44;;;;;;;;;;;;;;;9.31;33.92;99998.88;5039547;28;19982;-79
2022/01/30 14:59:09;;;;;;;;;;;;;;;9.29;34.18;100001.31;5024680;28;19925;-79
2022/01/30 15:01:34;;;;;;;;;;;;;;;9.22;34.48;100001.44;5031241;28;20054;-83
2022/01/30 15:04:00;;;;;;;;;;;;;;;9.19;34.73;100001.50;5045153;28;19921;-83
2022/01/30 15:06:25;;;;;;;;;;;;;;;9.13;35.30;100004.03;5029128;28;20393;-83
2022/01/30 15:08:51;;;;;;;;;;;;;;;9.04;35.32;100003.81;5031840;28;19954;-83
2022/01/30 15:11:16;;;;;;;;;;;;;;;8.96;35.34;100002.41;5031783;28;20015;-84
2022/01/30 15:13:43;;;;;;;;;;;;;;;8.88;35.68;100012.06;5033345;28;20464;-84
2022/01/30 15:16:10;;;;;;;;;;;;;;;8.83;36.16;100012.53;5026676;28;20138;-83
2022/01/30 15:18:42;;;;;;;;;;;;;;;8.74;35.89;100020.63;5031651;28;19917;-83
2022/01/30 15:21:14;;;;;;;;;;;;;;;8.67;35.93;100020.75;5030866;28;19924;-86
2022/01/30 15:23:40;;;;;;;;;;;;;;;8.62;35.42;100024.78;5027827;28;19940;-79
2022/01/30 15:26:05;;;;;;;;;;;;;;;8.55;36.25;100021.38;5035029;28;20047;-79
2022/01/30 15:28:31;;;;;;;;;;;;;;;8.48;36.26;100035.34;5036762;28;19921;-79
2022/01/30 15:30:56;;;;;;;;;;;;;;;8.41;36.93;100028.72;5031833;28;19925;-79
2022/01/30 15:33:22;;;;;;;;;;;;;;;8.34;36.26;100026.09;5031581;28;19927;-78
2022/01/30 15:35:49;;;;;;;;;;;;;;;8.30;36.87;100032.91;5030758;28;19979;-78
2022/01/30 15:38:17;;;;;;;;;;;;;;;8.24;36.52;100037.31;5031647;28;19925;-78
2022/01/30 15:40:42;;;;;;;;;;;;;;;8.19;36.77;100046.88;5033801;28;19933;-78
2022/01/30 15:43:08;;;;;;;;;;;;;;;8.08;36.62;100046.28;5029329;28;19916;-79
2022/01/30 15:51:05;;;;;;;;;;;;;;;7.91;36.87;100047.34;5031664;28;19944;-78
2022/01/30 15:53:30;;;;;;;;;;;;;;;7.88;37.15;100057.25;5032361;28;20011;-78
2022/01/30 15:55:56;;;;;;;;;;;;;;;7.83;37.24;100046.66;5032256;28;19916;-79